Time;durP1;ratioP1;P1;durP2;ratioP2;P2;SDS_P1;SDS_P2;PMS_P1;PMS_P2;Temp;Humidity;BMP_temperature;BMP_pressure;BME280_temperature;BME280_humidity;BME280_pressure;Samples;Min_cycle;Max_cycle;Signal;HPM_P1;HPM_P2
2022/10/14 00:01:52;;;;;;;;;;;21.40;90.80;;;;;;5110046;28;19904;-43
2022/10/14 00:04:17;;;;;;;;;;;21.30;90.80;;;;;;5112888;28;19908;-43
2022/10/14 00:06:43;;;;;;;;;;;21.30;90.60;;;;;;5118676;28;19928;-45
2022/10/14 00:09:08;;;;;;;;;;;21.40;90.60;;;;;;5112900;28;19908;-43
2022/10/14 00:11:35;;;;;;;;;;;21.40;90.90;;;;;;5112852;28;19908;-45
2022/10/14 00:14:02;;;;;;;;;;;21.40;90.60;;;;;;5113227;28;19976;-44
2022/10/14 00:16:30;;;;;;;;;;;21.40;90.60;;;;;;5095674;28;19908;-43
2022/10/14 00:18:55;;;;;;;;;;;21.40;90.60;;;;;;5113806;28;19907;-44
2022/10/14 00:21:21;;;;;;;;;;;21.40;90.60;;;;;;5095721;28;19915;-46
2022/10/14 00:23:46;;;;;;;;;;;21.40;90.60;;;;;;5113946;28;19914;-43
2022/10/14 00:26:19;;;;;;;;;;;21.40;90.60;;;;;;5114074;28;19908;-45
2022/10/14 00:28:45;;;;;;;;;;;21.40;90.60;;;;;;5113672;28;19908;-44
2022/10/14 00:31:11;;;;;;;;;;;21.40;90.60;;;;;;5113967;28;19908;-45
2022/10/14 00:33:36;;;;;;;;;;;21.30;90.60;;;;;;5113809;28;19918;-46
2022/10/14 00:36:03;;;;;;;;;;;21.40;90.70;;;;;;5113621;28;19912;-44
2022/10/14 00:38:28;;;;;;;;;;;21.30;90.70;;;;;;5116109;28;20346;-43
2022/10/14 00:40:54;;;;;;;;;;;21.40;90.70;;;;;;5117227;28;19908;-42
2022/10/14 00:43:21;;;;;;;;;;;21.40;90.60;;;;;;5117402;28;19915;-44
2022/10/14 00:45:46;;;;;;;;;;;21.40;90.60;;;;;;5122433;27;19907;-46
2022/10/14 00:48:12;;;;;;;;;;;21.40;90.60;;;;;;5137931;27;19960;-44
2022/10/14 00:50:40;;;;;;;;;;;21.40;90.60;;;;;;5137478;27;19907;-46
2022/10/14 00:53:06;;;;;;;;;;;21.40;90.50;;;;;;5137538;27;20002;-43
2022/10/14 00:55:32;;;;;;;;;;;21.40;90.50;;;;;;5137445;27;20329;-46
2022/10/14 00:57:58;;;;;;;;;;;21.50;90.50;;;;;;5137310;27;19908;-43
2022/10/14 01:00:23;;;;;;;;;;;21.40;90.50;;;;;;5137451;27;19911;-45
2022/10/14 01:02:48;;;;;;;;;;;21.40;90.50;;;;;;5137881;27;19907;-43
2022/10/14 01:05:15;;;;;;;;;;;21.50;90.50;;;;;;5137251;27;19946;-43
2022/10/14 01:08:00;;;;;;;;;;;21.40;90.50;;;;;;5137620;27;19991;-44
2022/10/14 01:10:29;;;;;;;;;;;21.40;90.50;;;;;;5119032;27;19951;-45
2022/10/14 01:13:13;;;;;;;;;;;21.50;90.50;;;;;;5137372;27;19968;-44
2022/10/14 01:15:39;;;;;;;;;;;21.40;90.50;;;;;;5137117;27;19911;-43
2022/10/14 01:18:11;;;;;;;;;;;21.40;90.50;;;;;;5137113;27;20263;-43
2022/10/14 01:20:48;;;;;;;;;;;21.40;90.50;;;;;;5118946;27;20442;-42
2022/10/14 01:23:32;;;;;;;;;;;21.40;90.50;;;;;;5118740;27;19960;-44
2022/10/14 01:26:09;;;;;;;;;;;21.40;90.60;;;;;;5137245;27;19908;-44
2022/10/14 01:28:53;;;;;;;;;;;21.40;90.60;;;;;;5137489;27;19908;-43
2022/10/14 01:31:20;;;;;;;;;;;21.30;90.60;;;;;;5137382;27;20345;-42
2022/10/14 01:33:48;;;;;;;;;;;21.30;90.60;;;;;;5136690;27;20396;-42
2022/10/14 01:36:17;;;;;;;;;;;21.30;90.60;;;;;;5136682;27;19911;-42
2022/10/14 01:38:52;;;;;;;;;;;21.30;90.60;;;;;;5136952;27;19990;-42
2022/10/14 01:41:17;;;;;;;;;;;21.30;90.60;;;;;;5136583;27;20277;-43
2022/10/14 01:43:45;;;;;;;;;;;21.30;90.60;;;;;;5137204;27;19912;-44
2022/10/14 01:46:11;;;;;;;;;;;21.30;90.60;;;;;;5109826;28;19908;-42
2022/10/14 01:48:37;;;;;;;;;;;21.40;90.60;;;;;;5115843;28;19914;-43
2022/10/14 01:51:06;;;;;;;;;;;21.40;90.60;;;;;;5115812;28;19974;-42
2022/10/14 01:53:34;;;;;;;;;;;21.40;90.50;;;;;;5116096;28;19916;-44
2022/10/14 01:56:00;;;;;;;;;;;21.40;90.60;;;;;;5116001;28;19911;-45
2022/10/14 01:58:27;;;;;;;;;;;21.40;90.50;;;;;;5115666;28;20003;-43
2022/10/14 02:00:53;;;;;;;;;;;21.40;90.50;;;;;;5115596;28;19952;-43
2022/10/14 02:03:19;;;;;;;;;;;21.40;90.50;;;;;;5115899;28;20252;-43
2022/10/14 02:05:53;;;;;;;;;;;21.40;90.50;;;;;;5115471;28;20248;-42
2022/10/14 02:08:27;;;;;;;;;;;21.40;90.50;;;;;;5115531;28;20385;-43
2022/10/14 02:10:53;;;;;;;;;;;21.40;90.50;;;;;;5116156;28;19911;-44
2022/10/14 02:13:21;;;;;;;;;;;21.40;90.50;;;;;;5115600;28;19911;-42
2022/10/14 02:15:56;;;;;;;;;;;21.40;90.50;;;;;;5115647;28;19911;-44
2022/10/14 02:18:30;;;;;;;;;;;21.30;90.50;;;;;;5115315;28;19908;-43
2022/10/14 02:21:16;;;;;;;;;;;21.40;90.50;;;;;;5115630;28;19907;-44
2022/10/14 02:23:44;;;;;;;;;;;21.40;90.80;;;;;;5115568;28;20297;-42
2022/10/14 02:26:11;;;;;;;;;;;21.30;90.50;;;;;;5115330;28;19912;-44
2022/10/14 02:28:38;;;;;;;;;;;21.30;90.50;;;;;;5115411;28;19915;-45
2022/10/14 02:31:06;;;;;;;;;;;21.30;90.50;;;;;;5115670;28;20365;-42
2022/10/14 02:33:40;;;;;;;;;;;21.30;90.50;;;;;;5114986;28;19916;-43
2022/10/14 02:36:06;;;;;;;;;;;21.30;90.50;;;;;;5115157;28;20362;-43
2022/10/14 02:38:32;;;;;;;;;;;21.30;90.40;;;;;;5114929;28;19965;-43
2022/10/14 02:40:59;;;;;;;;;;;21.30;90.40;;;;;;5114926;28;19939;-43
2022/10/14 02:43:25;;;;;;;;;;;21.30;90.50;;;;;;5115416;28;19914;-43
2022/10/14 02:45:55;;;;;;;;;;;21.30;90.40;;;;;;5121052;27;19908;-42
2022/10/14 02:48:20;;;;;;;;;;;21.30;90.50;;;;;;5135609;27;19998;-42
2022/10/14 02:50:46;;;;;;;;;;;21.30;90.50;;;;;;5135469;27;19949;-42
2022/10/14 02:53:13;;;;;;;;;;;21.30;90.50;;;;;;5135482;27;19964;-42
2022/10/14 02:55:38;;;;;;;;;;;21.30;90.50;;;;;;5135475;27;19977;-44
2022/10/14 02:58:04;;;;;;;;;;;21.30;90.50;;;;;;5135469;27;19915;-42
2022/10/14 03:00:29;;;;;;;;;;;21.30;90.50;;;;;;5134757;27;20325;-44
2022/10/14 03:02:55;;;;;;;;;;;21.30;90.50;;;;;;5135376;27;19914;-43
2022/10/14 03:05:20;;;;;;;;;;;21.30;90.50;;;;;;5135239;27;19952;-43
2022/10/14 03:07:46;;;;;;;;;;;21.30;90.50;;;;;;5135468;27;19927;-42
2022/10/14 03:10:11;;;;;;;;;;;21.30;90.60;;;;;;5135027;27;20357;-42
2022/10/14 03:12:37;;;;;;;;;;;21.30;90.50;;;;;;5135096;27;19911;-42
2022/10/14 03:15:02;;;;;;;;;;;21.30;90.50;;;;;;5135434;27;19911;-42
2022/10/14 03:17:28;;;;;;;;;;;21.30;90.60;;;;;;5134872;27;19908;-43
2022/10/14 03:19:54;;;;;;;;;;;21.30;90.60;;;;;;5135127;27;19911;-43
2022/10/14 03:22:19;;;;;;;;;;;21.30;90.60;;;;;;5134696;27;19912;-45
2022/10/14 03:24:44;;;;;;;;;;;21.30;90.60;;;;;;5134765;28;19973;-43
2022/10/14 03:27:10;;;;;;;;;;;21.20;90.60;;;;;;5134989;28;20265;-43
2022/10/14 03:29:35;;;;;;;;;;;21.30;90.60;;;;;;5134894;28;19908;-42
2022/10/14 03:32:01;;;;;;;;;;;21.30;90.60;;;;;;5134531;28;19954;-43
2022/10/14 03:34:26;;;;;;;;;;;21.30;90.50;;;;;;5134845;28;19912;-44
2022/10/14 03:36:52;;;;;;;;;;;21.20;90.50;;;;;;5134680;28;19954;-43
2022/10/14 03:39:17;;;;;;;;;;;21.30;90.50;;;;;;5134702;28;19907;-43
2022/10/14 03:41:43;;;;;;;;;;;21.30;90.50;;;;;;5134715;28;19916;-42
2022/10/14 03:44:09;;;;;;;;;;;21.30;90.50;;;;;;5134372;28;20373;-45
2022/10/14 03:46:34;;;;;;;;;;;21.30;90.60;;;;;;5122572;28;20266;-43
2022/10/14 03:49:00;;;;;;;;;;;21.30;90.60;;;;;;5114213;28;19914;-42
2022/10/14 03:51:25;;;;;;;;;;;21.30;90.60;;;;;;5114203;28;19998;-44
2022/10/14 03:53:51;;;;;;;;;;;21.30;90.60;;;;;;5114093;28;19924;-43
2022/10/14 03:56:16;;;;;;;;;;;21.30;90.60;;;;;;5114047;28;19919;-43
2022/10/14 03:58:42;;;;;;;;;;;21.30;90.60;;;;;;5114185;28;19907;-45
2022/10/14 04:01:07;;;;;;;;;;;21.30;90.60;;;;;;5114393;28;20278;-42
2022/10/14 04:03:33;;;;;;;;;;;21.20;90.50;;;;;;5113718;28;19988;-43
2022/10/14 04:05:58;;;;;;;;;;;21.20;90.50;;;;;;5113556;28;19920;-42
2022/10/14 04:08:23;;;;;;;;;;;21.20;90.50;;;;;;5113981;28;19911;-42
2022/10/14 04:10:52;;;;;;;;;;;21.20;90.60;;;;;;5114064;28;19931;-42
2022/10/14 04:13:18;;;;;;;;;;;21.20;90.50;;;;;;5117199;28;20353;-42
2022/10/14 04:15:43;;;;;;;;;;;21.30;90.60;;;;;;5117952;28;19916;-43
2022/10/14 04:18:09;;;;;;;;;;;21.20;90.60;;;;;;5117970;28;19915;-44
2022/10/14 04:20:35;;;;;;;;;;;21.20;90.60;;;;;;5117556;28;20006;-43
2022/10/14 04:23:01;;;;;;;;;;;21.20;90.60;;;;;;5117237;28;19908;-44
2022/10/14 04:25:26;;;;;;;;;;;21.20;90.60;;;;;;5117304;28;19915;-43
2022/10/14 04:27:52;;;;;;;;;;;21.20;90.60;;;;;;5116398;28;19947;-42
2022/10/14 04:30:17;;;;;;;;;;;21.20;90.60;;;;;;5117179;28;20377;-43
2022/10/14 04:32:43;;;;;;;;;;;21.20;90.60;;;;;;5117440;28;19931;-43
2022/10/14 04:35:08;;;;;;;;;;;21.20;90.60;;;;;;5117490;28;19969;-43
2022/10/14 04:37:34;;;;;;;;;;;21.30;90.60;;;;;;5117410;28;20358;-42
2022/10/14 04:39:59;;;;;;;;;;;21.30;90.60;;;;;;5117222;28;19998;-45
2022/10/14 04:42:25;;;;;;;;;;;21.30;90.60;;;;;;5117362;28;19908;-43
2022/10/14 04:44:50;;;;;;;;;;;21.20;90.80;;;;;;5116905;28;19908;-43
2022/10/14 04:47:16;;;;;;;;;;;21.30;90.60;;;;;;5135035;27;19911;-47
2022/10/14 04:49:41;;;;;;;;;;;21.20;90.60;;;;;;5137599;27;19914;-43
2022/10/14 04:52:07;;;;;;;;;;;21.20;90.60;;;;;;5137496;27;20363;-45
2022/10/14 04:54:32;;;;;;;;;;;21.30;90.60;;;;;;5137352;27;19983;-43
2022/10/14 04:56:57;;;;;;;;;;;21.30;90.60;;;;;;5137649;27;19915;-43
2022/10/14 04:59:23;;;;;;;;;;;21.20;90.60;;;;;;5137456;27;19919;-43
2022/10/14 05:01:48;;;;;;;;;;;21.30;90.80;;;;;;5137237;27;19908;-43
2022/10/14 05:04:14;;;;;;;;;;;21.20;90.50;;;;;;5137470;27;19908;-43
2022/10/14 05:06:39;;;;;;;;;;;21.20;90.60;;;;;;5137460;27;20373;-43
2022/10/14 05:09:05;;;;;;;;;;;21.20;90.60;;;;;;5137398;27;19908;-44
2022/10/14 05:11:30;;;;;;;;;;;21.20;90.60;;;;;;5136932;27;19914;-44
2022/10/14 05:13:56;;;;;;;;;;;21.20;90.60;;;;;;5137226;27;19992;-43
2022/10/14 05:16:21;;;;;;;;;;;21.20;90.60;;;;;;5137050;27;19907;-42
2022/10/14 05:18:47;;;;;;;;;;;21.20;90.60;;;;;;5136792;27;19907;-42
2022/10/14 05:21:12;;;;;;;;;;;21.20;90.60;;;;;;5136845;27;20010;-43
2022/10/14 05:23:38;;;;;;;;;;;21.20;90.60;;;;;;5136257;27;19968;-43
2022/10/14 05:26:03;;;;;;;;;;;21.20;90.60;;;;;;5137074;27;19956;-43
2022/10/14 05:28:29;;;;;;;;;;;21.20;90.60;;;;;;5136838;27;19907;-42
2022/10/14 05:30:55;;;;;;;;;;;21.20;90.60;;;;;;5136997;27;19951;-44
2022/10/14 05:33:21;;;;;;;;;;;21.20;90.60;;;;;;5136454;27;20006;-44
2022/10/14 05:35:46;;;;;;;;;;;21.20;90.60;;;;;;5136411;27;19911;-42
2022/10/14 05:38:12;;;;;;;;;;;21.20;90.60;;;;;;5136602;27;19908;-42
2022/10/14 05:40:38;;;;;;;;;;;21.20;90.60;;;;;;5135372;27;19907;-42
2022/10/14 05:43:03;;;;;;;;;;;21.20;90.70;;;;;;5136491;27;19912;-44
2022/10/14 05:45:28;;;;;;;;;;;21.20;90.60;;;;;;5133533;27;19919;-42
2022/10/14 05:47:54;;;;;;;;;;;21.20;90.70;;;;;;5115750;28;19992;-42
2022/10/14 05:50:20;;;;;;;;;;;21.20;90.70;;;;;;5115677;28;19930;-46
2022/10/14 05:52:46;;;;;;;;;;;21.20;90.70;;;;;;5115645;28;20278;-43
2022/10/14 05:55:11;;;;;;;;;;;21.20;90.70;;;;;;5115555;28;19912;-44
2022/10/14 05:57:37;;;;;;;;;;;21.20;90.70;;;;;;5115375;28;20196;-44
2022/10/14 06:00:03;;;;;;;;;;;21.20;90.70;;;;;;5115488;28;20354;-46
2022/10/14 06:02:29;;;;;;;;;;;21.20;90.70;;;;;;5115370;28;20002;-42
2022/10/14 06:04:55;;;;;;;;;;;21.20;90.70;;;;;;5115275;28;19908;-44
2022/10/14 06:07:20;;;;;;;;;;;21.20;90.70;;;;;;5115214;28;20003;-42
2022/10/14 06:09:46;;;;;;;;;;;21.20;90.70;;;;;;5115099;28;19908;-44
2022/10/14 06:12:11;;;;;;;;;;;21.20;90.70;;;;;;5115064;28;19911;-44
2022/10/14 06:14:37;;;;;;;;;;;21.20;90.70;;;;;;5114969;28;19918;-43
2022/10/14 06:17:03;;;;;;;;;;;21.20;90.80;;;;;;5115393;28;19915;-47
2022/10/14 06:19:29;;;;;;;;;;;21.20;90.70;;;;;;5115088;28;19911;-45
2022/10/14 06:21:55;;;;;;;;;;;21.20;90.70;;;;;;5096945;28;19908;-42
2022/10/14 06:24:20;;;;;;;;;;;21.20;90.70;;;;;;5114771;28;19915;-43
2022/10/14 06:26:47;;;;;;;;;;;21.20;90.70;;;;;;5115003;28;19907;-42
2022/10/14 06:29:12;;;;;;;;;;;21.20;90.70;;;;;;5114703;28;19908;-42
2022/10/14 06:31:38;;;;;;;;;;;21.20;90.70;;;;;;5114929;28;20347;-43
2022/10/14 06:34:04;;;;;;;;;;;21.20;90.70;;;;;;5113204;28;19916;-43
2022/10/14 06:36:30;;;;;;;;;;;21.20;90.70;;;;;;5113449;28;20263;-43
2022/10/14 06:38:55;;;;;;;;;;;21.20;90.70;;;;;;5114882;28;19908;-42
2022/10/14 06:41:21;;;;;;;;;;;21.20;90.70;;;;;;5113778;28;19963;-42
2022/10/14 06:43:47;;;;;;;;;;;21.20;90.70;;;;;;5096561;28;19912;-43
2022/10/14 06:46:12;;;;;;;;;;;21.20;90.70;;;;;;5123040;27;19930;-42
2022/10/14 06:48:38;;;;;;;;;;;21.20;90.70;;;;;;5134913;27;20358;-42
2022/10/14 06:51:04;;;;;;;;;;;21.20;90.80;;;;;;5135179;27;19964;-42
2022/10/14 06:53:29;;;;;;;;;;;21.20;90.80;;;;;;5134869;27;19934;-42
2022/10/14 06:56:02;;;;;;;;;;;21.20;90.70;;;;;;5134888;27;19918;-42
2022/10/14 06:58:28;;;;;;;;;;;21.20;90.80;;;;;;5135401;27;19951;-44
2022/10/14 07:00:53;;;;;;;;;;;21.20;90.70;;;;;;5134949;27;20374;-44
2022/10/14 07:03:19;;;;;;;;;;;21.20;90.70;;;;;;5134853;27;20257;-43
2022/10/14 07:05:44;;;;;;;;;;;21.20;90.70;;;;;;5134574;27;19907;-43
2022/10/14 07:08:10;;;;;;;;;;;21.20;90.70;;;;;;5135130;27;19907;-43
2022/10/14 07:10:36;;;;;;;;;;;21.20;90.70;;;;;;5134716;27;19908;-45
2022/10/14 07:13:01;;;;;;;;;;;21.20;90.70;;;;;;5134637;27;19963;-44
2022/10/14 07:15:27;;;;;;;;;;;21.20;90.70;;;;;;5135035;27;20002;-46
2022/10/14 07:17:52;;;;;;;;;;;21.20;90.70;;;;;;5134873;27;19911;-46
2022/10/14 07:20:17;;;;;;;;;;;21.20;90.70;;;;;;5134844;27;19911;-42
2022/10/14 07:22:43;;;;;;;;;;;21.20;90.80;;;;;;5134749;27;19918;-44
2022/10/14 07:25:09;;;;;;;;;;;21.20;90.90;;;;;;5134677;28;19912;-44
2022/10/14 07:27:34;;;;;;;;;;;21.20;90.90;;;;;;5134787;28;19916;-44
2022/10/14 07:30:00;;;;;;;;;;;21.20;90.90;;;;;;5134470;28;20366;-44
2022/10/14 07:32:26;;;;;;;;;;;21.20;90.90;;;;;;5134393;28;20270;-43
2022/10/14 07:34:51;;;;;;;;;;;21.20;91.00;;;;;;5134627;28;19918;-46
2022/10/14 07:37:16;;;;;;;;;;;21.20;90.90;;;;;;5134841;28;19911;-43
2022/10/14 07:39:42;;;;;;;;;;;21.20;91.00;;;;;;5135012;28;20268;-44
2022/10/14 07:42:08;;;;;;;;;;;21.20;90.90;;;;;;5134761;28;19907;-42
2022/10/14 07:44:33;;;;;;;;;;;21.20;91.00;;;;;;5134450;28;19933;-42
2022/10/14 07:47:00;;;;;;;;;;;21.20;91.00;;;;;;5120579;28;19990;-43
2022/10/14 07:49:25;;;;;;;;;;;21.20;91.00;;;;;;5117692;28;19908;-43
2022/10/14 07:51:51;;;;;;;;;;;21.10;90.90;;;;;;5117681;28;20265;-43
2022/10/14 07:54:18;;;;;;;;;;;21.10;90.90;;;;;;5118216;28;19912;-43
2022/10/14 07:56:44;;;;;;;;;;;21.10;91.00;;;;;;5117833;28;20014;-43
2022/10/14 07:59:10;;;;;;;;;;;21.00;91.00;;;;;;5117818;28;19908;-42
2022/10/14 08:01:36;;;;;;;;;;;21.10;91.10;;;;;;5118009;28;19912;-45
2022/10/14 08:04:02;;;;;;;;;;;21.10;91.00;;;;;;5117683;28;19908;-43
2022/10/14 08:06:28;;;;;;;;;;;21.00;90.90;;;;;;5118061;28;19973;-43
2022/10/14 08:08:53;;;;;;;;;;;21.00;91.10;;;;;;5117736;28;19912;-44
2022/10/14 08:11:23;;;;;;;;;;;21.00;91.10;;;;;;5124273;27;19911;-44
2022/10/14 08:13:49;;;;;;;;;;;20.90;91.10;;;;;;5106081;28;19916;-47
2022/10/14 08:16:19;;;;;;;;;;;20.90;91.00;;;;;;5117540;28;19916;-45
2022/10/14 08:18:45;;;;;;;;;;;20.90;91.00;;;;;;5117399;28;19943;-44
2022/10/14 08:21:11;;;;;;;;;;;20.90;91.00;;;;;;5101819;27;20297;-44
2022/10/14 08:23:37;;;;;;;;;;;20.90;91.00;;;;;;5117733;28;19908;-44
2022/10/14 08:29:06;;;;;;;;;;;20.90;91.10;;;;;;5132268;27;20396;-44
2022/10/14 08:31:32;;;;;;;;;;;20.90;91.00;;;;;;5124102;27;19911;-46
2022/10/14 08:33:58;;;;;;;;;;;20.90;91.10;;;;;;5115562;28;20266;-46
2022/10/14 08:36:24;;;;;;;;;;;20.90;91.10;;;;;;5115808;28;20270;-43
2022/10/14 08:38:51;;;;;;;;;;;20.90;91.10;;;;;;5099897;28;19939;-45
2022/10/14 08:41:22;;;;;;;;;;;20.80;91.10;;;;;;5115457;28;20354;-43
2022/10/14 08:44:06;;;;;;;;;;;20.80;91.10;;;;;;5115621;28;19950;-44
2022/10/14 08:46:34;;;;;;;;;;;20.80;91.20;;;;;;5119124;27;19908;-42
2022/10/14 08:49:25;;;;;;;;;;;20.80;91.20;;;;;;5115176;28;19904;-45
2022/10/14 08:52:11;;;;;;;;;;;20.80;91.30;;;;;;5108267;28;19919;-46
2022/10/14 08:54:38;;;;;;;;;;;20.80;91.40;;;;;;5114875;27;19912;-45
2022/10/14 08:57:04;;;;;;;;;;;20.90;91.10;;;;;;5111416;27;19914;-45
2022/10/14 08:59:31;;;;;;;;;;;20.90;91.00;;;;;;5108707;27;19907;-43
2022/10/14 09:02:02;;;;;;;;;;;21.00;91.10;;;;;;5113952;27;19908;-43
2022/10/14 09:04:29;;;;;;;;;;;21.00;91.00;;;;;;5115623;28;19915;-45
2022/10/14 09:06:55;;;;;;;;;;;21.00;91.00;;;;;;5112350;27;19998;-45
2022/10/14 09:09:21;;;;;;;;;;;21.00;90.90;;;;;;5112918;27;19915;-46
2022/10/14 09:11:55;;;;;;;;;;;20.90;91.00;;;;;;5116368;27;20327;-50
2022/10/14 09:14:27;;;;;;;;;;;20.80;91.20;;;;;;5113335;27;20370;-43
2022/10/14 09:16:55;;;;;;;;;;;20.80;91.30;;;;;;5113551;28;19919;-43
2022/10/14 09:19:31;;;;;;;;;;;20.80;91.40;;;;;;5114763;27;19912;-46
2022/10/14 09:21:57;;;;;;;;;;;20.70;91.30;;;;;;5116602;27;19911;-44
2022/10/14 09:24:27;;;;;;;;;;;20.70;91.30;;;;;;5119203;27;19912;-45
2022/10/14 09:26:55;;;;;;;;;;;20.70;91.30;;;;;;5113419;27;19912;-45
2022/10/14 09:29:28;;;;;;;;;;;20.70;91.30;;;;;;5114272;28;20367;-44
2022/10/14 09:32:04;;;;;;;;;;;20.70;91.10;;;;;;5114354;27;20359;-44
2022/10/14 09:34:36;;;;;;;;;;;20.60;90.70;;;;;;5113781;27;20374;-45
2022/10/14 09:37:15;;;;;;;;;;;20.60;90.60;;;;;;5114634;27;19911;-44
2022/10/14 09:39:40;;;;;;;;;;;20.50;90.60;;;;;;5094715;28;19912;-43
2022/10/14 09:42:13;;;;;;;;;;;20.60;90.70;;;;;;5095383;28;19915;-45
2022/10/14 09:44:38;;;;;;;;;;;20.60;90.90;;;;;;5095382;28;19916;-43
2022/10/14 09:47:04;;;;;;;;;;;20.60;91.00;;;;;;5127175;27;20285;-43
2022/10/14 09:49:36;;;;;;;;;;;20.60;91.00;;;;;;5136342;27;19915;-43
2022/10/14 09:52:02;;;;;;;;;;;20.60;91.00;;;;;;5136101;27;20311;-43
2022/10/14 09:54:28;;;;;;;;;;;20.50;91.00;;;;;;5136419;27;19964;-43
2022/10/14 09:57:16;;;;;;;;;;;20.60;91.10;;;;;;5136336;27;19915;-46
2022/10/14 09:59:54;;;;;;;;;;;20.60;91.10;;;;;;5118181;27;19954;-43
2022/10/14 10:02:21;;;;;;;;;;;20.60;91.10;;;;;;5136015;27;20345;-44
2022/10/14 10:04:48;;;;;;;;;;;20.60;91.10;;;;;;5136139;27;19911;-44
2022/10/14 10:07:25;;;;;;;;;;;20.50;91.10;;;;;;5135842;27;19930;-43
2022/10/14 10:09:55;;;;;;;;;;;20.50;91.10;;;;;;5135742;27;19907;-41
2022/10/14 10:12:22;;;;;;;;;;;20.50;91.10;;;;;;5136117;27;19918;-45
2022/10/14 10:15:02;;;;;;;;;;;20.50;91.10;;;;;;5135802;27;19912;-42
2022/10/14 10:17:29;;;;;;;;;;;20.50;91.10;;;;;;5117136;27;20269;-44
2022/10/14 10:20:11;;;;;;;;;;;20.50;91.10;;;;;;5135166;27;20317;-46
2022/10/14 10:22:38;;;;;;;;;;;20.50;91.10;;;;;;5135747;27;20386;-44
2022/10/14 10:25:04;;;;;;;;;;;20.50;91.10;;;;;;5135836;27;19930;-43
2022/10/14 10:27:34;;;;;;;;;;;20.50;91.10;;;;;;5117409;27;19914;-43
2022/10/14 10:30:14;;;;;;;;;;;20.50;91.10;;;;;;5135567;27;20023;-46
2022/10/14 10:32:43;;;;;;;;;;;20.50;91.00;;;;;;5135769;27;19911;-43
2022/10/14 10:35:21;;;;;;;;;;;20.50;91.00;;;;;;5135668;27;19939;-43
2022/10/14 10:37:47;;;;;;;;;;;20.50;91.00;;;;;;5135546;27;19986;-45
2022/10/14 10:40:34;;;;;;;;;;;20.60;91.00;;;;;;5135180;27;19984;-44
2022/10/14 10:42:59;;;;;;;;;;;20.50;90.90;;;;;;5117002;27;19913;-44
2022/10/14 10:45:32;;;;;;;;;;;20.50;90.90;;;;;;5133213;27;19994;-45
2022/10/14 10:48:01;;;;;;;;;;;20.60;91.00;;;;;;5096487;28;19908;-44
2022/10/14 10:50:45;;;;;;;;;;;20.60;90.90;;;;;;5114315;28;19912;-44
2022/10/14 10:53:13;;;;;;;;;;;20.50;90.90;;;;;;5114532;28;20339;-43
2022/10/14 10:55:42;;;;;;;;;;;20.50;90.90;;;;;;5114398;28;19912;-43
2022/10/14 10:58:25;;;;;;;;;;;20.50;90.90;;;;;;5114362;28;19915;-46
2022/10/14 11:01:00;;;;;;;;;;;20.50;91.00;;;;;;5113500;28;19908;-46
2022/10/14 11:03:44;;;;;;;;;;;20.50;91.00;;;;;;5114624;28;19908;-45
2022/10/14 11:12:01;;;;;;;;;;;20.50;91.00;;;;;;5114765;28;20411;-43
2022/10/14 11:12:01;;;;;;;;;;;20.40;91.00;;;;;;5114407;28;19915;-46
2022/10/14 11:14:36;;;;;;;;;;;20.50;91.00;;;;;;5114293;28;19912;-44
2022/10/14 11:17:01;;;;;;;;;;;20.50;91.10;;;;;;5114182;28;19908;-44
2022/10/14 11:19:42;;;;;;;;;;;20.40;91.10;;;;;;5112768;28;19912;-44
2022/10/14 11:22:41;;;;;;;;;;;20.50;91.10;;;;;;5113632;28;19995;-43
2022/10/14 11:25:13;;;;;;;;;;;20.50;91.10;;;;;;5080103;28;19994;-43
2022/10/14 11:27:53;;;;;;;;;;;20.50;91.20;;;;;;5113851;28;19907;-45
2022/10/14 11:30:38;;;;;;;;;;;20.50;91.20;;;;;;5113881;28;20308;-44
2022/10/14 11:33:04;;;;;;;;;;;20.50;91.20;;;;;;5095308;28;19922;-46
2022/10/14 11:35:32;;;;;;;;;;;20.50;91.50;;;;;;5114249;28;19912;-44
2022/10/14 11:38:07;;;;;;;;;;;20.50;91.30;;;;;;5113903;28;19915;-44
2022/10/14 11:40:49;;;;;;;;;;;20.50;91.30;;;;;;5112806;28;19957;-43
2022/10/14 11:43:35;;;;;;;;;;;20.50;91.30;;;;;;5113954;28;19960;-43
2022/10/14 11:46:06;;;;;;;;;;;20.50;91.30;;;;;;5120263;28;19930;-44
2022/10/14 11:48:38;;;;;;;;;;;20.50;91.30;;;;;;5134371;28;19919;-44
2022/10/14 11:51:07;;;;;;;;;;;20.50;91.30;;;;;;5134104;28;19911;-44
2022/10/14 11:53:48;;;;;;;;;;;20.50;91.30;;;;;;5134236;28;19911;-42
2022/10/14 11:56:28;;;;;;;;;;;20.50;91.20;;;;;;5134371;28;19912;-44
2022/10/14 11:58:55;;;;;;;;;;;20.50;91.30;;;;;;5134506;28;19908;-45
2022/10/14 12:01:23;;;;;;;;;;;20.50;91.30;;;;;;5134453;28;19968;-42
2022/10/14 12:03:59;;;;;;;;;;;20.50;91.30;;;;;;5134043;28;19908;-43
2022/10/14 12:06:42;;;;;;;;;;;20.40;91.30;;;;;;5133976;28;19970;-44
2022/10/14 12:09:19;;;;;;;;;;;20.50;91.30;;;;;;5134093;28;19907;-42
2022/10/14 12:12:04;;;;;;;;;;;20.40;91.30;;;;;;5134387;28;19911;-42
2022/10/14 12:14:35;;;;;;;;;;;20.40;91.30;;;;;;5115015;28;20362;-43
2022/10/14 12:17:04;;;;;;;;;;;20.40;91.40;;;;;;5134240;28;19908;-44
2022/10/14 12:19:30;;;;;;;;;;;20.40;91.30;;;;;;5134420;28;19907;-43
2022/10/14 12:22:01;;;;;;;;;;;20.40;91.40;;;;;;5134662;28;19908;-43
2022/10/14 12:24:32;;;;;;;;;;;20.40;91.40;;;;;;5134267;28;19994;-43
2022/10/14 12:26:59;;;;;;;;;;;20.40;91.50;;;;;;5134197;28;20354;-44
2022/10/14 12:29:30;;;;;;;;;;;20.40;91.50;;;;;;5134292;28;19966;-45
2022/10/14 12:32:04;;;;;;;;;;;20.30;91.50;;;;;;5133759;28;19915;-42
2022/10/14 12:34:40;;;;;;;;;;;20.40;91.50;;;;;;5119285;27;20420;-44
2022/10/14 12:37:23;;;;;;;;;;;20.40;91.50;;;;;;5137427;27;20281;-44
2022/10/14 12:40:01;;;;;;;;;;;20.40;91.40;;;;;;5137703;27;19907;-41
2022/10/14 12:42:29;;;;;;;;;;;20.40;91.40;;;;;;5137720;27;20346;-43
2022/10/14 12:45:00;;;;;;;;;;;20.50;91.40;;;;;;5124846;27;19954;-43
2022/10/14 12:47:32;;;;;;;;;;;20.50;91.30;;;;;;5121003;27;19908;-45
2022/10/14 12:50:01;;;;;;;;;;;20.60;91.40;;;;;;5118369;27;20014;-42
2022/10/14 12:52:30;;;;;;;;;;;20.50;91.40;;;;;;5123158;27;19915;-45
2022/10/14 12:54:55;;;;;;;;;;;20.50;91.40;;;;;;5116908;28;19912;-45
2022/10/14 12:57:24;;;;;;;;;;;20.50;91.60;;;;;;5098740;28;20263;-42
2022/10/14 12:59:50;;;;;;;;;;;20.50;91.50;;;;;;5116912;28;19908;-43
2022/10/14 13:02:34;;;;;;;;;;;20.50;91.60;;;;;;5116995;28;19951;-43
2022/10/14 13:05:01;;;;;;;;;;;20.40;91.60;;;;;;5135291;27;20354;-45
2022/10/14 13:07:27;;;;;;;;;;;20.50;91.70;;;;;;5126956;27;19973;-45
2022/10/14 13:09:57;;;;;;;;;;;20.40;91.60;;;;;;5127892;27;19920;-48
2022/10/14 13:12:23;;;;;;;;;;;20.50;91.70;;;;;;5120903;27;19994;-44
2022/10/14 13:14:51;;;;;;;;;;;20.50;91.70;;;;;;5123558;27;19966;-47
2022/10/14 13:17:35;;;;;;;;;;;20.50;91.70;;;;;;5116650;28;19907;-47
2022/10/14 13:20:03;;;;;;;;;;;20.40;91.70;;;;;;5116588;28;19914;-47
2022/10/14 13:22:28;;;;;;;;;;;20.50;91.70;;;;;;5116441;28;19915;-47
2022/10/14 13:25:14;;;;;;;;;;;20.40;91.70;;;;;;5116302;28;20286;-46
2022/10/14 13:27:46;;;;;;;;;;;20.50;91.70;;;;;;5115534;28;19915;-44
2022/10/14 13:30:17;;;;;;;;;;;20.50;91.80;;;;;;5119574;27;19911;-43
2022/10/14 13:32:46;;;;;;;;;;;20.50;91.80;;;;;;5125181;27;20015;-43
2022/10/14 13:35:30;;;;;;;;;;;20.50;91.80;;;;;;5136199;27;19916;-46
2022/10/14 13:38:00;;;;;;;;;;;20.50;91.80;;;;;;5106243;27;19964;-44
2022/10/14 13:40:33;;;;;;;;;;;20.50;91.80;;;;;;5129411;27;19972;-43
2022/10/14 13:43:00;;;;;;;;;;;20.50;91.80;;;;;;5129699;27;19943;-43
2022/10/14 13:45:34;;;;;;;;;;;20.50;91.80;;;;;;5117786;27;19912;-43
2022/10/14 13:48:00;;;;;;;;;;;20.50;91.70;;;;;;5136552;27;20304;-42
2022/10/14 13:50:30;;;;;;;;;;;20.50;91.70;;;;;;5136407;27;19907;-44
2022/10/14 13:52:58;;;;;;;;;;;20.50;91.70;;;;;;5116379;27;20338;-42
2022/10/14 13:55:24;;;;;;;;;;;20.50;91.70;;;;;;5115533;28;20013;-44
2022/10/14 13:58:00;;;;;;;;;;;20.50;91.70;;;;;;5115462;28;19908;-44
2022/10/14 14:00:33;;;;;;;;;;;20.60;91.80;;;;;;5114745;28;20270;-43
2022/10/14 14:02:59;;;;;;;;;;;20.60;91.80;;;;;;5114461;28;19907;-42
2022/10/14 14:05:27;;;;;;;;;;;20.50;91.80;;;;;;5114901;28;19969;-44
2022/10/14 14:07:54;;;;;;;;;;;20.50;91.80;;;;;;5115261;28;19920;-47
2022/10/14 14:10:22;;;;;;;;;;;20.50;91.80;;;;;;5114967;28;20354;-43
2022/10/14 14:12:47;;;;;;;;;;;20.50;91.80;;;;;;5115055;28;20250;-42
2022/10/14 14:15:17;;;;;;;;;;;20.50;91.80;;;;;;5114676;28;19918;-46
2022/10/14 14:17:42;;;;;;;;;;;20.50;91.90;;;;;;5115011;28;20400;-47
2022/10/14 14:20:09;;;;;;;;;;;20.50;91.90;;;;;;5095615;28;19916;-45
2022/10/14 14:22:39;;;;;;;;;;;20.50;92.00;;;;;;5112698;28;19963;-43
2022/10/14 14:25:31;;;;;;;;;;;20.50;91.90;;;;;;5110048;28;19916;-42
2022/10/14 14:28:00;;;;;;;;;;;20.60;91.70;;;;;;5103555;28;19911;-42
2022/10/14 14:30:27;;;;;;;;;;;20.50;91.80;;;;;;5113703;28;19915;-43
2022/10/14 14:32:54;;;;;;;;;;;20.50;91.90;;;;;;5112070;28;19942;-44